Time;durP1;ratioP1;P1;durP2;ratioP2;P2;SDS_P1;SDS_P2;PMS_P1;PMS_P2;Temp;Humidity;BMP_temperature;BMP_pressure;BME280_temperature;BME280_humidity;BME280_pressure;Samples;Min_cycle;Max_cycle;Signal;HPM_P1;HPM_P2
2020/12/19 00:00:47;;;;;;;46.13;24.12;;;;;;;4.11;85.84;102771.73;1803658;79;21061;-79
2020/12/19 00:03:15;;;;;;;44.73;22.80;;;;;;;4.12;85.95;102781.12;1803410;79;21148;-81
2020/12/19 00:09:48;;;;;;;39.23;21.20;;;;;;;4.10;85.91;102784.15;1803646;79;21062;-81
2020/12/19 00:12:22;;;;;;;44.42;22.85;;;;;;;4.06;85.57;102779.88;1803478;79;21520;-83
2020/12/19 00:14:50;;;;;;;46.05;22.07;;;;;;;4.03;85.06;102786.74;1803780;79;21022;-84
2020/12/19 00:17:18;;;;;;;38.58;21.35;;;;;;;4.00;85.24;102777.34;1803734;79;21204;-80
2020/12/19 00:19:45;;;;;;;43.40;21.82;;;;;;;3.98;85.24;102778.22;1803446;79;20939;-82
2020/12/19 00:22:13;;;;;;;39.50;21.02;;;;;;;3.98;85.46;102783.36;1803436;79;20943;-82
2020/12/19 00:24:41;;;;;;;46.00;23.25;;;;;;;3.99;85.56;102779.94;1803453;79;20935;-81
2020/12/19 00:27:12;;;;;;;43.13;22.73;;;;;;;3.99;85.81;102779.94;1803687;79;21081;-81
2020/12/19 00:29:40;;;;;;;46.48;25.00;;;;;;;4.00;85.74;102782.48;1803552;79;21572;-82
2020/12/19 00:32:08;;;;;;;42.58;21.68;;;;;;;4.00;85.75;102786.77;1803458;79;20974;-83
2020/12/19 00:34:38;;;;;;;43.28;22.62;;;;;;;4.00;85.75;102784.19;1800036;79;20947;-82
2020/12/19 00:37:06;;;;;;;42.62;21.87;;;;;;;3.99;85.78;102782.05;1803270;79;20915;-82
2020/12/19 00:39:33;;;;;;;47.58;23.02;;;;;;;4.01;86.00;102780.77;1803496;79;21493;-84
2020/12/19 00:42:01;;;;;;;51.42;24.57;;;;;;;4.02;86.15;102782.48;1803403;79;21374;-83
2020/12/19 00:44:29;;;;;;;46.23;23.55;;;;;;;4.03;86.15;102782.89;1803456;79;21505;-83
2020/12/19 00:46:57;;;;;;;48.65;22.87;;;;;;;4.01;86.16;102776.50;1803522;79;21502;-81
2020/12/19 00:49:25;;;;;;;42.20;21.75;;;;;;;4.00;86.30;102781.63;1803557;79;20935;-82
2020/12/19 00:51:53;;;;;;;42.48;21.50;;;;;;;4.02;86.40;102776.89;1803657;79;21081;-83
2020/12/19 00:54:21;;;;;;;45.70;23.12;;;;;;;4.01;86.46;102772.64;1803631;79;22197;-83
2020/12/19 00:56:51;;;;;;;41.80;22.50;;;;;;;4.02;86.65;102774.78;1803352;79;20975;-83
2020/12/19 00:59:19;;;;;;;47.80;24.02;;;;;;;4.02;86.69;102773.50;1781502;79;21509;-82
2020/12/19 01:01:47;;;;;;;43.45;21.95;;;;;;;4.03;86.81;102767.48;1803464;79;20880;-82
2020/12/19 01:04:15;;;;;;;46.00;23.62;;;;;;;4.05;86.91;102770.91;1803308;79;21090;-81
2020/12/19 01:06:43;;;;;;;48.75;23.52;;;;;;;4.07;86.93;102771.75;1803530;79;22130;-83
2020/12/19 01:09:11;;;;;;;46.42;23.47;;;;;;;4.05;86.95;102770.91;1803326;79;21664;-82
2020/12/19 01:11:39;;;;;;;47.93;24.85;;;;;;;4.03;87.02;102770.05;1803496;79;21474;-83
2020/12/19 01:14:07;;;;;;;49.42;24.98;;;;;;;4.01;86.91;102770.08;1803640;79;21544;-82
2020/12/19 01:16:35;;;;;;;45.65;22.77;;;;;;;3.99;87.03;102764.06;1803451;79;20895;-79
2020/12/19 01:19:04;;;;;;;47.33;24.23;;;;;;;3.99;87.41;102757.64;1803619;79;21331;-84
2020/12/19 01:21:32;;;;;;;50.65;26.17;;;;;;;3.99;87.60;102758.93;1803387;79;20986;-83
2020/12/19 01:24:00;;;;;;;51.08;24.63;;;;;;;4.01;87.80;102759.80;1803344;79;20930;-82
2020/12/19 01:26:28;;;;;;;47.08;24.30;;;;;;;4.02;87.91;102758.09;1803426;79;21064;-81
2020/12/19 01:28:56;;;;;;;46.63;24.00;;;;;;;4.04;87.86;102758.50;1803373;79;20919;-83
2020/12/19 01:31:24;;;;;;;45.20;22.58;;;;;;;4.01;87.39;102748.66;1803368;79;22186;-79
2020/12/19 01:33:52;;;;;;;47.03;22.95;;;;;;;3.98;87.17;102754.67;1803291;79;20974;-82
2020/12/19 01:36:22;;;;;;;41.20;22.42;;;;;;;3.96;87.16;102750.38;1803368;79;20974;-82
2020/12/19 01:38:50;;;;;;;42.95;21.45;;;;;;;3.95;87.32;102750.84;1803368;79;21101;-81
2020/12/19 01:41:21;;;;;;;41.83;21.62;;;;;;;3.98;87.52;102749.97;1803453;79;21707;-80
2020/12/19 01:43:55;;;;;;;42.17;21.45;;;;;;;3.96;87.62;102749.10;1803392;79;21194;-82
2020/12/19 01:46:55;;;;;;;42.17;22.55;;;;;;;3.94;87.93;102742.70;1803439;79;20956;-82
2020/12/19 01:49:26;;;;;;;47.20;23.65;;;;;;;3.94;88.23;102743.98;1803354;79;20931;-80
2020/12/19 01:51:57;;;;;;;42.83;23.20;;;;;;;3.88;88.69;102744.03;1802721;79;20942;-81
2020/12/19 01:54:25;;;;;;;45.12;23.12;;;;;;;3.84;89.17;102737.61;1803314;79;20932;-82
2020/12/19 01:56:54;;;;;;;48.30;23.47;;;;;;;3.81;89.64;102740.20;1803237;79;21452;-82
2020/12/19 01:59:24;;;;;;;46.92;24.43;;;;;;;3.79;90.31;102741.94;1803416;79;21518;-81
2020/12/19 02:01:54;;;;;;;46.73;24.45;;;;;;;3.75;90.87;102738.52;1803259;79;20994;-81
2020/12/19 02:04:24;;;;;;;47.85;23.98;;;;;;;3.73;91.28;102737.69;1803173;79;21078;-81
2020/12/19 02:06:56;;;;;;;50.80;25.08;;;;;;;3.74;91.71;102735.52;1803407;79;20951;-83
2020/12/19 02:09:27;;;;;;;49.42;24.90;;;;;;;3.73;92.11;102735.95;1803579;79;21194;-79
2020/12/19 02:11:55;;;;;;;49.53;24.82;;;;;;;3.72;92.31;102737.26;1803345;79;21093;-80
2020/12/19 02:14:23;;;;;;;55.08;26.37;;;;;;;3.72;92.53;102732.13;1803297;79;20939;-80
2020/12/19 02:17:03;;;;;;;46.65;25.30;;;;;;;3.73;92.73;102729.98;1803222;79;21092;-81
2020/12/19 02:19:31;;;;;;;45.90;24.47;;;;;;;3.74;92.75;102733.81;1803369;79;21049;-83
2020/12/19 02:21:59;;;;;;;55.30;28.00;;;;;;;3.76;92.77;102733.82;1803138;79;21510;-83
2020/12/19 02:24:27;;;;;;;53.98;28.35;;;;;;;3.76;92.77;102729.11;1803312;79;20947;-82
2020/12/19 02:26:56;;;;;;;56.55;29.32;;;;;;;3.76;92.75;102720.12;1803199;79;20943;-81
2020/12/19 02:29:25;;;;;;;55.58;27.70;;;;;;;3.78;92.79;102720.95;1803205;79;20936;-80
2020/12/19 02:31:55;;;;;;;46.28;23.42;;;;;;;3.80;92.69;102720.54;1803390;79;21484;-80
2020/12/19 02:34:23;;;;;;;39.48;20.77;;;;;;;3.78;92.24;102726.09;1803295;79;21188;-79
2020/12/19 02:36:51;;;;;;;41.63;21.12;;;;;;;3.73;91.83;102719.26;1803188;79;21001;-81
2020/12/19 02:39:19;;;;;;;42.78;22.27;;;;;;;3.73;91.64;102727.42;1803296;79;20983;-84
2020/12/19 02:41:47;;;;;;;39.92;21.48;;;;;;;3.73;91.51;102721.83;1803227;79;20954;-80
2020/12/19 02:44:17;;;;;;;41.42;22.65;;;;;;;3.76;91.42;102721.41;1803304;79;21109;-85
2020/12/19 02:46:46;;;;;;;42.15;20.95;;;;;;;3.79;91.33;102718.82;1803331;79;21393;-85
2020/12/19 02:49:14;;;;;;;38.67;20.55;;;;;;;3.82;91.19;102720.09;1803195;79;20982;-80
2020/12/19 02:51:42;;;;;;;37.42;20.02;;;;;;;3.83;91.04;102724.38;1780903;79;20978;-81
2020/12/19 02:54:10;;;;;;;38.05;20.20;;;;;;;3.82;90.92;102724.80;1803228;79;20978;-80
2020/12/19 02:56:38;;;;;;;34.23;19.57;;;;;;;3.83;90.81;102724.38;1803323;79;20938;-85
2020/12/19 02:59:05;;;;;;;41.58;20.68;;;;;;;3.81;90.72;102727.36;1803493;79;22084;-84
2020/12/19 03:01:33;;;;;;;38.05;19.75;;;;;;;3.81;90.81;102726.94;1803109;79;20946;-82
2020/12/19 03:04:01;;;;;;;38.23;21.45;;;;;;;3.83;90.77;102729.51;1806044;79;20959;-83
2020/12/19 03:06:32;;;;;;;37.85;20.05;;;;;;;3.84;90.64;102726.06;1812023;79;21544;-85
2020/12/19 03:09:00;;;;;;;34.83;19.02;;;;;;;3.85;90.58;102732.48;1812110;79;21517;-84
2020/12/19 03:11:27;;;;;;;36.90;19.17;;;;;;;3.84;90.58;102730.77;1812166;79;22288;-84
2020/12/19 03:13:55;;;;;;;41.53;20.20;;;;;;;3.88;90.53;102743.17;1812100;79;21093;-84
2020/12/19 03:16:23;;;;;;;37.48;18.90;;;;;;;3.87;90.40;102739.73;1812427;79;21670;-83
2020/12/19 03:18:51;;;;;;;33.92;18.35;;;;;;;3.86;89.99;102735.45;1812456;79;21494;-84
2020/12/19 03:21:19;;;;;;;36.38;19.32;;;;;;;3.84;89.63;102741.47;1812349;79;21505;-84
2020/12/19 03:23:47;;;;;;;33.50;18.23;;;;;;;3.82;89.20;102738.92;1812308;79;22089;-83
2020/12/19 03:26:15;;;;;;;32.93;17.48;;;;;;;3.84;88.99;102740.19;1812283;79;20899;-83
2020/12/19 03:28:43;;;;;;;33.85;18.85;;;;;;;3.82;88.79;102736.78;1812278;79;20930;-82
2020/12/19 03:31:11;;;;;;;36.73;19.73;;;;;;;3.83;88.74;102737.21;1812169;79;20935;-84
2020/12/19 03:33:39;;;;;;;32.15;18.02;;;;;;;3.83;88.82;102734.19;1812297;79;20935;-84
2020/12/19 03:36:07;;;;;;;35.28;19.17;;;;;;;3.83;88.98;102737.21;1812137;79;21255;-84
2020/12/19 03:38:34;;;;;;;35.98;19.75;;;;;;;3.83;89.02;102733.36;1812198;79;20939;-84
2020/12/19 03:41:02;;;;;;;36.58;19.10;;;;;;;3.83;89.13;102735.93;1812218;78;20954;-84
2020/12/19 03:43:30;;;;;;;33.67;18.23;;;;;;;3.81;89.28;102735.92;1812326;78;21050;-84
2020/12/19 03:45:58;;;;;;;37.60;19.20;;;;;;;3.84;89.48;102730.77;1812400;79;21072;-85
2020/12/19 03:48:26;;;;;;;39.75;19.55;;;;;;;3.84;89.62;102733.34;1812423;79;21199;-83
2020/12/19 03:50:55;;;;;;;33.15;18.60;;;;;;;3.84;89.69;102732.48;1812218;78;21119;-84
2020/12/19 03:53:23;;;;;;;34.10;17.98;;;;;;;3.83;89.75;102736.75;1812440;78;20938;-85
2020/12/19 03:55:51;;;;;;;31.12;17.40;;;;;;;3.85;89.89;102732.91;1812208;78;20899;-85
2020/12/19 03:58:19;;;;;;;36.85;19.73;;;;;;;3.86;89.94;102732.89;1812308;79;21053;-84
2020/12/19 04:00:47;;;;;;;36.65;19.10;;;;;;;3.87;90.02;102733.74;1812393;79;21299;-85
2020/12/19 04:03:15;;;;;;;37.63;19.40;;;;;;;3.88;90.01;102726.05;1812374;78;20946;-84
2020/12/19 04:05:42;;;;;;;37.98;18.73;;;;;;;3.90;90.07;102731.16;1804441;79;21528;-85
2020/12/19 04:08:10;;;;;;;36.13;18.75;;;;;;;3.92;90.14;102729.03;1803568;79;21042;-85
2020/12/19 04:10:38;;;;;;;36.55;18.92;;;;;;;3.94;90.16;102727.72;1803656;79;20927;-84
2020/12/19 04:13:06;;;;;;;35.05;19.35;;;;;;;3.96;90.13;102733.69;1803504;79;21130;-86
2020/12/19 04:15:34;;;;;;;36.83;21.15;;;;;;;3.94;90.12;102732.43;1803486;79;21548;-84
2020/12/19 04:18:02;;;;;;;33.18;19.27;;;;;;;3.93;90.17;102726.86;1803453;79;21547;-84
2020/12/19 04:20:30;;;;;;;34.98;18.95;;;;;;;3.94;90.23;102728.58;1803311;79;21121;-84
2020/12/19 04:22:58;;;;;;;37.95;22.40;;;;;;;3.95;90.25;102735.43;1803543;79;21510;-85
2020/12/19 04:25:25;;;;;;;38.40;21.45;;;;;;;3.96;90.36;102738.83;1803535;79;21264;-83
2020/12/19 04:27:53;;;;;;;34.15;19.10;;;;;;;3.95;90.37;102734.57;1803516;79;21082;-84
2020/12/19 04:30:22;;;;;;;39.40;20.60;;;;;;;3.91;90.39;102735.02;1803500;79;21500;-84
2020/12/19 04:32:50;;;;;;;41.55;20.23;;;;;;;3.86;90.50;102731.60;1803375;79;21046;-86
2020/12/19 04:35:18;;;;;;;35.08;20.68;;;;;;;3.85;90.73;102738.91;1803415;79;21068;-84
2020/12/19 04:37:46;;;;;;;37.78;20.72;;;;;;;3.85;90.88;102733.77;1803395;79;21192;-83
2020/12/19 04:40:14;;;;;;;36.42;20.52;;;;;;;3.88;90.96;102735.46;1803452;79;20943;-83
2020/12/19 04:42:42;;;;;;;38.58;19.85;;;;;;;3.88;90.92;102732.47;1803329;79;20955;-83
2020/12/19 04:45:10;;;;;;;36.45;20.35;;;;;;;3.85;90.84;102732.48;1750304;79;20943;-84
2020/12/19 04:47:38;;;;;;;33.90;18.87;;;;;;;3.85;90.74;102732.91;1803428;79;20923;-81
2020/12/19 04:50:06;;;;;;;32.88;18.10;;;;;;;3.87;90.82;102737.59;1803452;79;21427;-86
2020/12/19 04:52:34;;;;;;;33.38;19.20;;;;;;;3.88;90.79;102736.75;1803463;79;20978;-86
2020/12/19 04:55:02;;;;;;;39.53;21.57;;;;;;;3.86;90.75;102743.16;1803389;79;20939;-86
2020/12/19 04:57:30;;;;;;;35.98;18.65;;;;;;;3.84;90.69;102747.46;1803400;79;20931;-83
2020/12/19 04:59:58;;;;;;;30.35;17.45;;;;;;;3.82;90.46;102746.62;1803504;79;20915;-83
2020/12/19 05:02:26;;;;;;;31.60;18.02;;;;;;;3.79;90.21;102743.22;1803326;79;21195;-83
2020/12/19 05:04:55;;;;;;;32.55;18.65;;;;;;;3.78;90.09;102753.91;1806396;79;20926;-85
2020/12/19 05:07:25;;;;;;;64.27;32.08;;;;;;;3.79;89.79;102758.63;1807546;79;21501;-82
2020/12/19 05:09:53;;;;;;;33.88;19.23;;;;;;;3.79;89.75;102751.78;1812072;79;21077;-83
2020/12/19 05:12:21;;;;;;;31.93;16.55;;;;;;;3.81;89.38;102756.89;1781038;79;20974;-79
2020/12/19 05:14:49;;;;;;;28.57;16.93;;;;;;;3.81;88.88;102750.05;1812141;78;21192;-79
2020/12/19 05:17:17;;;;;;;31.33;16.17;;;;;;;3.81;88.50;102753.04;1812194;78;20974;-81
2020/12/19 05:19:44;;;;;;;28.83;16.35;;;;;;;3.79;88.24;102758.63;1780801;79;21097;-79
2020/12/19 05:22:17;;;;;;;30.95;16.10;;;;;;;3.77;88.21;102754.77;1812124;79;20966;-80
2020/12/19 05:24:44;;;;;;;31.57;17.80;;;;;;;3.76;87.64;102760.78;1812444;78;21683;-79
2020/12/19 05:27:12;;;;;;;25.60;14.73;;;;;;;3.75;87.59;102766.77;1781063;79;21219;-85
2020/12/19 05:29:40;;;;;;;27.90;15.38;;;;;;;3.73;87.29;102769.78;1780842;79;21056;-80
2020/12/19 05:32:08;;;;;;;25.80;14.38;;;;;;;3.72;87.16;102774.48;1812097;79;20939;-81
2020/12/19 05:34:36;;;;;;;26.40;15.35;;;;;;;3.69;86.99;102779.21;1755715;79;20919;-80
2020/12/19 05:37:05;;;;;;;24.20;14.35;;;;;;;3.68;87.01;102768.94;1755509;79;20895;-82
2020/12/19 05:39:33;;;;;;;25.62;14.50;;;;;;;3.67;86.96;102778.34;1756261;79;21482;-80
2020/12/19 05:42:00;;;;;;;22.35;12.98;;;;;;;3.67;87.01;102783.91;1811966;79;20986;-81
2020/12/19 05:44:28;;;;;;;22.90;12.70;;;;;;;3.65;87.06;102781.78;1812069;79;20935;-78
2020/12/19 05:46:56;;;;;;;19.90;12.03;;;;;;;3.66;87.20;102788.21;1812155;79;20934;-82
2020/12/19 05:49:24;;;;;;;27.95;12.70;;;;;;;3.66;87.40;102780.94;1812105;78;21057;-80
2020/12/19 05:51:52;;;;;;;22.40;11.85;;;;;;;3.67;87.46;102783.48;1812237;79;21203;-85
2020/12/19 05:54:20;;;;;;;25.57;12.03;;;;;;;3.67;87.58;102786.05;1812187;79;20935;-83
2020/12/19 05:56:48;;;;;;;23.42;12.25;;;;;;;3.69;87.64;102789.91;1781185;79;20981;-85
2020/12/19 05:59:18;;;;;;;23.90;13.22;;;;;;;3.71;87.63;102793.31;1812229;79;21046;-82
2020/12/19 06:01:48;;;;;;;19.77;10.75;;;;;;;3.69;87.38;102784.77;1812277;79;20939;-82
2020/12/19 06:04:17;;;;;;;19.85;11.73;;;;;;;3.71;86.72;102794.17;1812336;79;22215;-84
2020/12/19 06:06:48;;;;;;;18.52;11.73;;;;;;;3.73;85.85;102803.17;1812319;79;21160;-81
2020/12/19 06:09:17;;;;;;;;;;;;;;;3.76;86.02;102810.00;1815054;78;21537;-82
2020/12/19 06:11:58;;;;;;;22.27;11.15;;;;;;;3.75;86.13;102807.85;1812236;79;20665;-83
2020/12/19 06:14:27;;;;;;;17.10;10.45;;;;;;;3.75;86.31;102816.84;1811349;79;21060;-82
2020/12/19 06:16:58;;;;;;;20.17;12.18;;;;;;;3.74;86.44;102815.12;1755896;79;21202;-83
2020/12/19 06:19:26;;;;;;;20.43;11.28;;;;;;;3.74;86.62;102815.98;1780740;79;21556;-79
2020/12/19 06:21:55;;;;;;;20.52;12.37;;;;;;;3.77;86.65;102819.39;1812078;79;21525;-83
2020/12/19 06:24:47;;;;;;;19.17;11.97;;;;;;;3.78;86.61;102821.97;1812082;78;20970;-80
2020/12/19 06:27:27;;;;;;;23.98;14.10;;;;;;;3.77;86.60;102816.39;1812237;79;22144;-79
2020/12/19 06:29:55;;;;;;;25.68;14.85;;;;;;;3.78;86.91;102824.53;1812070;79;21525;-80
2020/12/19 06:32:28;;;;;;;21.52;13.38;;;;;;;3.76;87.28;102827.55;1812048;78;20978;-78
2020/12/19 06:35:10;;;;;;;24.65;15.93;;;;;;;3.76;87.38;102827.97;1812300;79;21482;-80
2020/12/19 06:37:41;;;;;;;24.65;14.50;;;;;;;3.74;87.57;102830.53;1812325;79;21494;-79
2020/12/19 06:40:18;;;;;;;23.25;13.40;;;;;;;3.75;87.75;102834.81;1812193;79;21045;-84
2020/12/19 06:42:49;;;;;;;20.27;11.53;;;;;;;3.75;87.70;102829.68;1812152;79;21501;-82
2020/12/19 06:45:29;;;;;;;20.48;11.85;;;;;;;3.78;87.77;102833.95;1811916;78;20910;-82
2020/12/19 06:47:57;;;;;;;23.00;14.18;;;;;;;3.82;87.83;102838.22;1811797;79;20986;-80
2020/12/19 06:50:25;;;;;;;26.48;15.98;;;;;;;3.84;87.75;102841.62;1812095;79;20922;-79
2020/12/19 06:52:58;;;;;;;30.52;17.48;;;;;;;3.84;87.65;102840.34;1811999;79;21097;-83
2020/12/19 06:59:03;;;;;;;24.82;15.00;;;;;;;3.95;87.74;102845.02;1774672;79;23308;-81
2020/12/19 07:01:31;;;;;;;28.20;14.33;;;;;;;3.87;87.82;102845.47;1748881;82;20943;-81
2020/12/19 07:03:59;;;;;;;24.85;14.07;;;;;;;3.86;87.89;102844.61;1749134;82;21205;-83
2020/12/19 07:06:27;;;;;;;23.75;13.53;;;;;;;3.88;88.08;102849.33;1749022;81;20931;-81
2020/12/19 07:08:55;;;;;;;23.95;13.30;;;;;;;3.93;88.07;102846.72;1748835;82;21083;-80
2020/12/19 07:11:39;;;;;;;24.67;13.78;;;;;;;3.94;88.08;102843.30;1749097;82;21584;-80
2020/12/19 07:14:15;;;;;;;26.17;14.98;;;;;;;3.99;88.10;102846.73;1748857;81;21002;-83
2020/12/19 07:16:51;;;;;;;27.85;14.95;;;;;;;4.01;88.08;102847.14;1748890;81;21203;-78
2020/12/19 07:19:26;;;;;;;26.57;15.00;;;;;;;4.02;88.20;102841.13;1749111;81;20982;-79
2020/12/19 07:21:57;;;;;;;27.27;16.02;;;;;;;4.01;88.42;102847.14;1748582;81;21387;-80
2020/12/19 07:24:25;;;;;;;31.85;17.77;;;;;;;4.04;88.62;102846.27;1749037;81;21524;-80
2020/12/19 07:26:54;;;;;;;31.10;17.35;;;;;;;4.05;88.85;102846.24;1748709;81;21181;-80
2020/12/19 07:29:23;;;;;;;35.85;18.95;;;;;;;4.05;88.97;102850.55;1748950;82;21206;-82
2020/12/19 07:31:59;;;;;;;35.65;19.87;;;;;;;4.06;89.06;102845.39;1748887;81;21541;-79
2020/12/19 07:34:29;;;;;;;37.53;19.32;;;;;;;4.07;88.97;102845.83;1748862;81;20919;-80
2020/12/19 07:36:57;;;;;;;34.60;18.80;;;;;;;4.08;89.07;102841.13;1748703;82;20970;-82
2020/12/19 07:39:25;;;;;;;36.53;20.37;;;;;;;4.14;89.15;102841.09;1748907;82;21575;-81
2020/12/19 07:42:08;;;;;;;35.58;19.45;;;;;;;4.17;88.92;102838.50;1748723;82;22172;-79
2020/12/19 07:44:37;;;;;;;41.28;21.48;;;;;;;4.21;88.93;102832.46;1748755;81;21033;-83
2020/12/19 07:47:13;;;;;;;36.38;20.32;;;;;;;4.23;88.52;102838.89;1748747;81;20899;-84
2020/12/19 07:49:49;;;;;;;35.20;20.68;;;;;;;4.23;88.57;102837.61;1748650;82;21123;-84
2020/12/19 07:52:24;;;;;;;43.58;21.42;;;;;;;4.20;88.52;102839.77;1748767;82;21136;-79
2020/12/19 07:55:00;;;;;;;42.20;20.60;;;;;;;4.21;88.53;102838.89;1748785;81;21208;-81
2020/12/19 07:57:31;;;;;;;45.33;21.55;;;;;;;4.23;88.53;102838.47;1748886;80;21122;-83
2020/12/19 08:00:03;;;;;;;;;;;;;;;4.25;88.35;102837.16;1752310;82;21014;-80
2020/12/19 08:02:35;;;;;;;39.45;20.45;;;;;;;4.25;88.30;102835.45;1749767;82;20177;-79
2020/12/19 08:05:02;;;;;;;37.65;19.73;;;;;;;4.28;88.40;102836.31;1723201;82;21188;-79
2020/12/19 08:07:30;;;;;;;35.38;18.50;;;;;;;4.31;88.12;102842.27;1749656;82;21380;-84
2020/12/19 08:10:07;;;;;;;36.05;18.32;;;;;;;4.30;87.55;102835.44;1749089;81;21014;-84
2020/12/19 08:12:35;;;;;;;33.10;17.62;;;;;;;4.32;87.33;102841.84;1749263;82;21085;-79
2020/12/19 08:15:10;;;;;;;33.92;18.77;;;;;;;4.37;87.38;102838.83;1749017;82;21127;-84
2020/12/19 08:17:49;;;;;;;30.48;18.80;;;;;;;4.42;86.90;102841.78;1749172;82;21144;-80
2020/12/19 08:20:24;;;;;;;37.70;18.60;;;;;;;4.40;86.59;102837.52;1749206;82;21205;-80
2020/12/19 08:22:52;;;;;;;33.73;19.25;;;;;;;4.41;86.62;102834.07;1749181;82;21580;-78
2020/12/19 08:25:20;;;;;;;32.35;19.00;;;;;;;4.41;86.55;102837.50;1749178;82;21019;-85
2020/12/19 08:27:48;;;;;;;31.97;18.82;;;;;;;4.41;86.55;102830.21;1749013;82;21120;-80
2020/12/19 08:30:30;;;;;;;31.82;18.12;;;;;;;4.41;86.42;102827.22;1748964;82;21133;-80
2020/12/19 08:33:03;;;;;;;41.75;19.48;;;;;;;4.41;86.20;102827.22;1747959;82;21210;-83
2020/12/19 08:35:34;;;;;;;;;;;;;;;4.48;86.52;102823.75;1751597;80;20983;-83
2020/12/19 08:38:15;;;;;;;30.60;17.30;;;;;;;4.57;86.26;102824.97;1749406;82;20558;-81
2020/12/19 08:40:47;;;;;;;38.10;18.37;;;;;;;4.62;85.91;102814.23;1748911;81;21679;-83
2020/12/19 08:43:18;;;;;;;25.85;15.80;;;;;;;4.65;85.67;102815.50;1748392;82;20978;-80
2020/12/19 08:45:46;;;;;;;38.55;17.57;;;;;;;4.71;85.05;102815.88;1748982;82;21193;-81
2020/12/19 08:48:22;;;;;;;26.27;16.12;;;;;;;4.75;84.58;102813.72;1749112;82;20938;-79
2020/12/19 08:50:53;;;;;;;30.25;15.88;;;;;;;4.76;83.56;102807.25;1748391;82;21168;-80
2020/12/19 08:53:22;;;;;;;28.77;16.00;;;;;;;4.75;83.35;102805.54;1748938;82;21552;-82
2020/12/19 08:55:51;;;;;;;35.68;16.35;;;;;;;4.75;83.30;102806.00;1749231;82;21611;-84
2020/12/19 08:58:27;;;;;;;30.27;17.52;;;;;;;4.79;83.41;102801.23;1742606;80;21373;-79
2020/12/19 09:00:59;;;;;;;28.40;16.20;;;;;;;4.82;83.33;102796.52;1735026;82;21672;-80
2020/12/19 09:03:34;;;;;;;26.57;14.30;;;;;;;4.85;83.11;102792.63;1733225;82;21082;-79
2020/12/19 09:06:11;;;;;;;20.65;13.32;;;;;;;4.83;82.54;102790.48;1734990;82;21114;-79
2020/12/19 09:08:45;;;;;;;21.73;13.38;;;;;;;4.82;81.87;102788.80;1734830;81;21193;-80
2020/12/19 09:11:28;;;;;;;34.92;18.05;;;;;;;4.84;81.36;102782.77;1735087;82;21208;-84
2020/12/19 09:14:10;;;;;;;33.80;19.20;;;;;;;4.83;82.56;102786.20;1735219;82;21169;-82
2020/12/19 09:16:50;;;;;;;;;;;;;;;4.89;83.32;102778.85;1737707;82;21057;-80
2020/12/19 09:19:18;;;;;;;28.15;16.45;;;;;;;4.95;83.39;102781.36;1735136;82;20194;-82
2020/12/19 09:21:57;;;;;;;30.00;17.60;;;;;;;4.97;82.80;102784.80;1735065;82;21043;-85
2020/12/19 09:24:25;;;;;;;31.70;16.60;;;;;;;4.99;82.28;102780.48;1735158;81;21593;-81
2020/12/19 09:26:55;;;;;;;29.30;16.93;;;;;;;5.03;82.18;102787.31;1735030;82;21735;-83
2020/12/19 09:29:23;;;;;;;30.60;18.05;;;;;;;5.07;81.68;102778.28;1735013;82;21170;-85
2020/12/19 09:31:51;;;;;;;33.95;18.82;;;;;;;5.06;81.58;102770.56;1735014;82;21086;-83
2020/12/19 09:34:18;;;;;;;32.90;18.17;;;;;;;5.08;81.81;102777.81;1735174;82;21066;-79
2020/12/19 09:36:46;;;;;;;33.90;18.00;;;;;;;5.10;81.93;102771.81;1735280;82;22115;-83
2020/12/19 09:39:15;;;;;;;29.00;16.17;;;;;;;5.10;81.94;102773.10;1735156;82;20999;-81
2020/12/19 09:41:43;;;;;;;22.48;13.90;;;;;;;5.08;81.22;102770.09;1734917;82;21165;-80
2020/12/19 09:44:10;;;;;;;24.25;15.05;;;;;;;5.03;80.34;102761.16;1734844;82;21189;-79
2020/12/19 09:46:39;;;;;;;26.02;15.43;;;;;;;4.98;80.42;102764.19;1734974;82;21074;-83
2020/12/19 09:49:07;;;;;;;28.20;17.02;;;;;;;4.98;80.76;102756.92;1734747;82;21206;-82
2020/12/19 09:51:35;;;;;;;25.57;15.13;;;;;;;5.04;80.92;102758.98;1734895;82;20939;-79
2020/12/19 09:54:03;;;;;;;29.98;16.62;;;;;;;5.10;80.43;102755.52;1735041;82;20987;-81
2020/12/19 09:56:39;;;;;;;28.12;17.20;;;;;;;5.14;80.58;102752.02;1735288;82;21063;-80
2020/12/19 09:59:06;;;;;;;24.60;15.23;;;;;;;5.17;80.63;102750.73;1735038;81;21246;-83
2020/12/19 10:01:36;;;;;;;31.65;16.37;;;;;;;5.21;80.38;102748.52;1734990;82;22115;-80
2020/12/19 10:04:03;;;;;;;24.77;14.70;;;;;;;5.19;80.61;102745.13;1734995;82;21601;-82
2020/12/19 10:06:31;;;;;;;27.50;15.90;;;;;;;5.23;79.86;102746.34;1735001;82;21133;-81
2020/12/19 10:08:59;;;;;;;27.13;15.70;;;;;;;5.22;79.42;102743.37;1734899;82;21494;-81
2020/12/19 10:11:27;;;;;;;29.92;16.40;;;;;;;5.17;79.29;102743.83;1735084;81;21569;-83
2020/12/19 10:13:55;;;;;;;40.88;18.92;;;;;;;5.21;79.53;102736.94;1735149;82;22150;-84
2020/12/19 10:16:23;;;;;;;29.27;16.80;;;;;;;5.28;79.95;102734.72;1735494;82;21149;-83
2020/12/19 10:18:51;;;;;;;30.55;19.07;;;;;;;5.39;80.30;102729.46;1734900;82;21023;-81
2020/12/19 10:21:19;;;;;;;33.15;20.48;;;;;;;5.45;80.23;102731.96;1734919;82;21668;-81
2020/12/19 10:23:48;;;;;;;33.90;19.50;;;;;;;5.44;80.35;102731.10;1735210;82;21117;-84
2020/12/19 10:26:16;;;;;;;33.08;19.50;;;;;;;5.44;80.67;102727.23;1735239;82;21205;-85
2020/12/19 10:28:44;;;;;;;32.40;19.32;;;;;;;5.45;80.51;102726.81;1734686;82;21046;-83
2020/12/19 10:31:13;;;;;;;28.52;16.73;;;;;;;5.45;80.20;102721.23;1735446;82;21043;-84
2020/12/19 10:33:40;;;;;;;30.30;16.65;;;;;;;5.47;79.86;102722.05;1734906;82;21011;-82
2020/12/19 10:36:08;;;;;;;33.65;18.25;;;;;;;5.49;79.74;102724.63;1735910;82;21027;-84
2020/12/19 10:38:36;;;;;;;31.95;18.57;;;;;;;5.50;79.42;102724.59;1734889;82;21208;-84
2020/12/19 10:41:04;;;;;;;38.42;20.32;;;;;;;5.54;79.76;102723.69;1735253;82;21039;-82
2020/12/19 10:43:32;;;;;;;35.20;18.55;;;;;;;5.57;79.61;102718.50;1735017;82;20935;-85
2020/12/19 10:46:01;;;;;;;34.65;19.60;;;;;;;5.60;79.96;102724.04;1735175;82;21030;-84
2020/12/19 10:48:29;;;;;;;36.60;20.77;;;;;;;5.61;80.12;102719.31;1735555;82;21502;-84
2020/12/19 10:50:57;;;;;;;35.95;21.97;;;;;;;5.60;80.47;102720.17;1735193;82;21146;-84
2020/12/19 10:53:25;;;;;;;37.08;21.97;;;;;;;5.58;80.51;102721.93;1735133;82;20971;-85
2020/12/19 10:55:53;;;;;;;45.90;24.35;;;;;;;5.58;80.46;102716.78;1735003;82;21212;-82
2020/12/19 10:58:21;;;;;;;37.90;20.92;;;;;;;5.58;80.62;102718.92;1736221;81;21122;-84
2020/12/19 11:00:49;;;;;;;38.33;20.68;;;;;;;5.58;80.84;102719.35;1743083;82;21046;-81
2020/12/19 11:03:17;;;;;;;40.33;22.40;;;;;;;5.66;80.95;102718.80;1743290;82;21196;-81
2020/12/19 11:05:45;;;;;;;40.25;23.47;;;;;;;5.68;80.82;102714.51;1743103;81;21236;-84
2020/12/19 11:08:13;;;;;;;35.23;20.60;;;;;;;5.70;81.10;102711.47;1743209;82;20975;-84
2020/12/19 11:10:43;;;;;;;36.53;21.37;;;;;;;5.70;80.22;102703.73;1743299;82;21097;-84
2020/12/19 11:13:12;;;;;;;44.65;24.00;;;;;;;5.63;80.47;102713.27;1743223;82;21098;-82
2020/12/19 11:15:40;;;;;;;50.10;25.43;;;;;;;5.64;80.99;102708.54;1743107;82;21337;-82
2020/12/19 11:18:08;;;;;;;39.40;21.55;;;;;;;5.68;81.33;102715.33;1743354;82;21164;-81
2020/12/19 11:20:37;;;;;;;40.23;23.92;;;;;;;5.70;81.07;102712.75;1743795;82;21152;-85
2020/12/19 11:23:05;;;;;;;44.67;23.05;;;;;;;5.70;80.61;102705.02;1743661;82;21219;-81
2020/12/19 11:25:33;;;;;;;44.15;24.27;;;;;;;5.66;80.71;102708.50;1743464;81;21130;-85
2020/12/19 11:28:01;;;;;;;41.13;23.40;;;;;;;5.62;80.72;102710.27;1744321;82;21094;-82
2020/12/19 11:30:29;;;;;;;42.00;24.45;;;;;;;5.63;80.99;102711.13;1743701;82;20954;-82
2020/12/19 11:32:57;;;;;;;62.90;25.77;;;;;;;5.65;80.79;102710.22;1743587;82;21118;-83
2020/12/19 11:35:26;;;;;;;49.88;25.32;;;;;;;5.64;80.71;102709.83;1743757;82;21466;-82
2020/12/19 11:37:54;;;;;;;41.68;24.23;;;;;;;5.66;80.87;102713.66;1743824;82;21107;-79